Arrowsmith, Illinois
Current Conditions -  °F | °C
As of 8:56 AM on Thursday 23 Oct 2014 (Local Time) from KBMI Reporting Station
Light Rain Light Rain  
Wind Chill: 42°   Ceiling: Unl
Heat Index: 47°   Visibility: 10mi
Dew Point: 43°   Wind: 12mph
Humidity: 86%   Direction: 180°S
Pressure: 30.23"   Gusts: NA
Location:  40.45°N, 88.63°W
Report Text: KBMI 231356Z 18010KT 10SM -RA CLR 08/06 A3023 RMK AO2 T00830061 RAB27 P0000 SLP242
Loading
Personal Weather Stations






























Interactive Weather Map
Tropical Storm Tracking
New forecast layout! Learn more

10-Day Weather Forecast

Advertisements
Track Severe Weather on mobile